sensor_id;sensor_type;location;lat;lon;timestamp;P1;durP1;ratioP1;P2;durP2;ratioP2
80842;SDS011;70255;53.686;10.778;2023-07-20T00:00:21;3.10;;;2.00;;
80842;SDS011;70255;53.686;10.778;2023-07-20T00:02:49;4.30;;;2.40;;
80842;SDS011;70255;53.686;10.778;2023-07-20T00:05:15;5.55;;;2.33;;
80842;SDS011;70255;53.686;10.778;2023-07-20T00:07:43;4.18;;;2.20;;
80842;SDS011;70255;53.686;10.778;2023-07-20T00:10:08;5.37;;;2.60;;
80842;SDS011;70255;53.686;10.778;2023-07-20T00:12:33;4.45;;;2.65;;
80842;SDS011;70255;53.686;10.778;2023-07-20T00:14:59;7.30;;;2.67;;
80842;SDS011;70255;53.686;10.778;2023-07-20T00:17:24;4.23;;;2.53;;
80842;SDS011;70255;53.686;10.778;2023-07-20T00:19:49;3.67;;;2.45;;
80842;SDS011;70255;53.686;10.778;2023-07-20T00:22:14;4.63;;;3.07;;
80842;SDS011;70255;53.686;10.778;2023-07-20T00:24:40;5.03;;;2.80;;
80842;SDS011;70255;53.686;10.778;2023-07-20T00:27:05;5.13;;;2.80;;
80842;SDS011;70255;53.686;10.778;2023-07-20T00:29:30;4.40;;;2.35;;
80842;SDS011;70255;53.686;10.778;2023-07-20T00:31:56;4.07;;;2.50;;
80842;SDS011;70255;53.686;10.778;2023-07-20T00:34:21;4.90;;;2.83;;
80842;SDS011;70255;53.686;10.778;2023-07-20T00:36:46;4.13;;;2.60;;
80842;SDS011;70255;53.686;10.778;2023-07-20T00:39:14;4.80;;;2.95;;
80842;SDS011;70255;53.686;10.778;2023-07-20T00:41:39;4.60;;;2.10;;
80842;SDS011;70255;53.686;10.778;2023-07-20T00:44:04;5.43;;;2.33;;
80842;SDS011;70255;53.686;10.778;2023-07-20T00:46:30;6.25;;;2.47;;
80842;SDS011;70255;53.686;10.778;2023-07-20T00:48:57;4.38;;;2.33;;
80842;SDS011;70255;53.686;10.778;2023-07-20T00:51:22;4.47;;;2.50;;
80842;SDS011;70255;53.686;10.778;2023-07-20T00:53:48;3.50;;;2.03;;
80842;SDS011;70255;53.686;10.778;2023-07-20T00:56:13;5.13;;;2.28;;
80842;SDS011;70255;53.686;10.778;2023-07-20T00:58:39;4.00;;;2.03;;
80842;SDS011;70255;53.686;10.778;2023-07-20T01:01:04;4.88;;;2.22;;
80842;SDS011;70255;53.686;10.778;2023-07-20T01:03:30;4.60;;;2.10;;
80842;SDS011;70255;53.686;10.778;2023-07-20T01:06:01;4.00;;;2.00;;
80842;SDS011;70255;53.686;10.778;2023-07-20T01:08:32;3.63;;;2.15;;
80842;SDS011;70255;53.686;10.778;2023-07-20T01:11:05;5.53;;;2.92;;
80842;SDS011;70255;53.686;10.778;2023-07-20T01:13:31;3.88;;;2.10;;
80842;SDS011;70255;53.686;10.778;2023-07-20T01:15:57;4.30;;;2.70;;
80842;SDS011;70255;53.686;10.778;2023-07-20T01:18:25;7.43;;;2.45;;
80842;SDS011;70255;53.686;10.778;2023-07-20T01:20:50;3.80;;;2.00;;
80842;SDS011;70255;53.686;10.778;2023-07-20T01:23:22;4.82;;;2.10;;
80842;SDS011;70255;53.686;10.778;2023-07-20T01:31:26;5.38;;;2.20;;
80842;SDS011;70255;53.686;10.778;2023-07-20T01:33:54;6.95;;;2.10;;
80842;SDS011;70255;53.686;10.778;2023-07-20T01:36:20;6.75;;;2.20;;
80842;SDS011;70255;53.686;10.778;2023-07-20T01:38:46;9.88;;;3.67;;
80842;SDS011;70255;53.686;10.778;2023-07-20T01:41:12;3.75;;;2.00;;
80842;SDS011;70255;53.686;10.778;2023-07-20T01:43:37;4.70;;;2.43;;
80842;SDS011;70255;53.686;10.778;2023-07-20T01:46:02;8.93;;;2.70;;
80842;SDS011;70255;53.686;10.778;2023-07-20T01:48:27;3.87;;;2.30;;
80842;SDS011;70255;53.686;10.778;2023-07-20T01:50:53;5.95;;;2.72;;
80842;SDS011;70255;53.686;10.778;2023-07-20T01:53:18;6.03;;;2.77;;
80842;SDS011;70255;53.686;10.778;2023-07-20T01:55:43;4.70;;;2.40;;
80842;SDS011;70255;53.686;10.778;2023-07-20T01:58:08;3.80;;;2.47;;
80842;SDS011;70255;53.686;10.778;2023-07-20T02:00:34;6.03;;;2.67;;
80842;SDS011;70255;53.686;10.778;2023-07-20T02:02:59;4.67;;;2.57;;
80842;SDS011;70255;53.686;10.778;2023-07-20T02:05:24;5.57;;;2.40;;
80842;SDS011;70255;53.686;10.778;2023-07-20T02:07:50;7.30;;;2.60;;
80842;SDS011;70255;53.686;10.778;2023-07-20T02:10:15;9.57;;;3.43;;
80842;SDS011;70255;53.686;10.778;2023-07-20T02:12:41;7.50;;;3.65;;
80842;SDS011;70255;53.686;10.778;2023-07-20T02:15:06;6.23;;;3.17;;
80842;SDS011;70255;53.686;10.778;2023-07-20T02:17:32;7.97;;;3.58;;
80842;SDS011;70255;53.686;10.778;2023-07-20T02:19:57;7.85;;;3.88;;
80842;SDS011;70255;53.686;10.778;2023-07-20T02:22:22;10.20;;;4.00;;
80842;SDS011;70255;53.686;10.778;2023-07-20T02:24:48;8.70;;;3.95;;
80842;SDS011;70255;53.686;10.778;2023-07-20T02:27:14;8.63;;;3.78;;
80842;SDS011;70255;53.686;10.778;2023-07-20T02:29:40;12.35;;;4.22;;
80842;SDS011;70255;53.686;10.778;2023-07-20T02:32:06;9.40;;;4.13;;
80842;SDS011;70255;53.686;10.778;2023-07-20T02:34:31;12.68;;;4.50;;
80842;SDS011;70255;53.686;10.778;2023-07-20T02:36:56;12.10;;;4.50;;
80842;SDS011;70255;53.686;10.778;2023-07-20T02:39:23;10.85;;;3.83;;
80842;SDS011;70255;53.686;10.778;2023-07-20T02:41:48;7.93;;;4.23;;
80842;SDS011;70255;53.686;10.778;2023-07-20T02:44:14;11.80;;;4.17;;
80842;SDS011;70255;53.686;10.778;2023-07-20T02:46:39;10.35;;;4.05;;
80842;SDS011;70255;53.686;10.778;2023-07-20T02:49:04;6.93;;;4.03;;
80842;SDS011;70255;53.686;10.778;2023-07-20T02:51:29;7.93;;;4.10;;
80842;SDS011;70255;53.686;10.778;2023-07-20T02:53:55;9.17;;;4.30;;
80842;SDS011;70255;53.686;10.778;2023-07-20T02:56:20;9.50;;;4.23;;
80842;SDS011;70255;53.686;10.778;2023-07-20T02:58:45;7.27;;;3.73;;
80842;SDS011;70255;53.686;10.778;2023-07-20T03:01:13;6.85;;;3.78;;
80842;SDS011;70255;53.686;10.778;2023-07-20T03:03:40;8.45;;;3.88;;
80842;SDS011;70255;53.686;10.778;2023-07-20T03:06:05;7.55;;;3.55;;
80842;SDS011;70255;53.686;10.778;2023-07-20T03:08:31;8.13;;;3.73;;
80842;SDS011;70255;53.686;10.778;2023-07-20T03:10:56;7.60;;;4.07;;
80842;SDS011;70255;53.686;10.778;2023-07-20T03:13:21;9.23;;;3.80;;
80842;SDS011;70255;53.686;10.778;2023-07-20T03:15:46;7.60;;;4.13;;
80842;SDS011;70255;53.686;10.778;2023-07-20T03:18:12;7.22;;;3.97;;
80842;SDS011;70255;53.686;10.778;2023-07-20T03:20:37;8.77;;;3.97;;
80842;SDS011;70255;53.686;10.778;2023-07-20T03:23:03;8.07;;;4.40;;
80842;SDS011;70255;53.686;10.778;2023-07-20T03:25:28;9.77;;;4.63;;
80842;SDS011;70255;53.686;10.778;2023-07-20T03:27:53;11.80;;;5.60;;
80842;SDS011;70255;53.686;10.778;2023-07-20T03:30:19;9.03;;;5.30;;
80842;SDS011;70255;53.686;10.778;2023-07-20T03:32:44;10.53;;;4.80;;
80842;SDS011;70255;53.686;10.778;2023-07-20T03:35:09;9.53;;;4.97;;
80842;SDS011;70255;53.686;10.778;2023-07-20T03:37:34;9.47;;;4.33;;
80842;SDS011;70255;53.686;10.778;2023-07-20T03:40:01;12.73;;;6.20;;
80842;SDS011;70255;53.686;10.778;2023-07-20T03:42:27;11.27;;;5.00;;
80842;SDS011;70255;53.686;10.778;2023-07-20T03:44:53;12.70;;;4.90;;
80842;SDS011;70255;53.686;10.778;2023-07-20T03:47:18;9.73;;;5.03;;
80842;SDS011;70255;53.686;10.778;2023-07-20T03:49:43;11.20;;;5.50;;
80842;SDS011;70255;53.686;10.778;2023-07-20T03:52:08;11.33;;;5.80;;
80842;SDS011;70255;53.686;10.778;2023-07-20T03:54:34;12.23;;;5.90;;
80842;SDS011;70255;53.686;10.778;2023-07-20T03:56:59;7.90;;;4.97;;
80842;SDS011;70255;53.686;10.778;2023-07-20T03:59:25;15.35;;;5.97;;
80842;SDS011;70255;53.686;10.778;2023-07-20T04:01:50;10.73;;;5.13;;
80842;SDS011;70255;53.686;10.778;2023-07-20T04:04:16;14.63;;;6.03;;
80842;SDS011;70255;53.686;10.778;2023-07-20T04:06:41;11.80;;;5.83;;
80842;SDS011;70255;53.686;10.778;2023-07-20T04:09:09;10.48;;;5.47;;
80842;SDS011;70255;53.686;10.778;2023-07-20T04:11:34;12.18;;;5.65;;
80842;SDS011;70255;53.686;10.778;2023-07-20T04:14:00;12.67;;;5.90;;
80842;SDS011;70255;53.686;10.778;2023-07-20T04:16:25;14.03;;;5.67;;
80842;SDS011;70255;53.686;10.778;2023-07-20T04:18:51;12.55;;;5.07;;
80842;SDS011;70255;53.686;10.778;2023-07-20T04:21:17;8.97;;;5.00;;
80842;SDS011;70255;53.686;10.778;2023-07-20T04:23:42;9.47;;;4.97;;
80842;SDS011;70255;53.686;10.778;2023-07-20T04:26:07;14.07;;;5.37;;
80842;SDS011;70255;53.686;10.778;2023-07-20T04:28:32;11.05;;;5.28;;
80842;SDS011;70255;53.686;10.778;2023-07-20T04:31:11;11.02;;;4.63;;
80842;SDS011;70255;53.686;10.778;2023-07-20T04:33:37;10.35;;;4.90;;
80842;SDS011;70255;53.686;10.778;2023-07-20T04:36:02;8.32;;;4.72;;
80842;SDS011;70255;53.686;10.778;2023-07-20T04:38:28;9.60;;;4.53;;
80842;SDS011;70255;53.686;10.778;2023-07-20T04:40:53;11.90;;;4.20;;
80842;SDS011;70255;53.686;10.778;2023-07-20T04:43:18;8.80;;;4.30;;
80842;SDS011;70255;53.686;10.778;2023-07-20T04:45:43;7.23;;;3.63;;
80842;SDS011;70255;53.686;10.778;2023-07-20T04:48:10;6.72;;;3.42;;
80842;SDS011;70255;53.686;10.778;2023-07-20T04:50:36;9.60;;;3.75;;
80842;SDS011;70255;53.686;10.778;2023-07-20T04:53:01;10.43;;;4.32;;
80842;SDS011;70255;53.686;10.778;2023-07-20T04:55:27;7.28;;;3.92;;
80842;SDS011;70255;53.686;10.778;2023-07-20T04:57:53;10.23;;;4.10;;
80842;SDS011;70255;53.686;10.778;2023-07-20T05:00:18;12.05;;;4.28;;
80842;SDS011;70255;53.686;10.778;2023-07-20T05:02:44;9.07;;;4.43;;
80842;SDS011;70255;53.686;10.778;2023-07-20T05:05:09;12.90;;;4.03;;
80842;SDS011;70255;53.686;10.778;2023-07-20T05:07:34;10.90;;;3.70;;
80842;SDS011;70255;53.686;10.778;2023-07-20T05:09:59;10.23;;;4.03;;
80842;SDS011;70255;53.686;10.778;2023-07-20T05:12:25;8.18;;;4.45;;
80842;SDS011;70255;53.686;10.778;2023-07-20T05:14:51;8.07;;;3.78;;
80842;SDS011;70255;53.686;10.778;2023-07-20T05:17:16;7.17;;;3.60;;
80842;SDS011;70255;53.686;10.778;2023-07-20T05:19:41;8.17;;;3.50;;
80842;SDS011;70255;53.686;10.778;2023-07-20T05:22:06;5.67;;;3.47;;
80842;SDS011;70255;53.686;10.778;2023-07-20T05:24:31;9.97;;;4.03;;
80842;SDS011;70255;53.686;10.778;2023-07-20T05:26:57;9.07;;;3.53;;
80842;SDS011;70255;53.686;10.778;2023-07-20T05:29:23;9.35;;;4.07;;
80842;SDS011;70255;53.686;10.778;2023-07-20T05:31:48;5.70;;;3.13;;
80842;SDS011;70255;53.686;10.778;2023-07-20T05:34:14;7.67;;;3.40;;
80842;SDS011;70255;53.686;10.778;2023-07-20T05:36:39;6.57;;;3.33;;
80842;SDS011;70255;53.686;10.778;2023-07-20T05:39:04;6.90;;;2.83;;
80842;SDS011;70255;53.686;10.778;2023-07-20T05:41:29;6.50;;;3.40;;
80842;SDS011;70255;53.686;10.778;2023-07-20T05:43:55;5.70;;;2.90;;
80842;SDS011;70255;53.686;10.778;2023-07-20T05:46:20;7.28;;;2.83;;
80842;SDS011;70255;53.686;10.778;2023-07-20T05:48:45;7.37;;;2.80;;
80842;SDS011;70255;53.686;10.778;2023-07-20T05:51:10;4.90;;;2.50;;
80842;SDS011;70255;53.686;10.778;2023-07-20T05:53:36;5.20;;;2.50;;
80842;SDS011;70255;53.686;10.778;2023-07-20T05:56:01;4.97;;;2.60;;
80842;SDS011;70255;53.686;10.778;2023-07-20T05:58:27;6.85;;;2.15;;
80842;SDS011;70255;53.686;10.778;2023-07-20T06:00:53;4.53;;;1.95;;
80842;SDS011;70255;53.686;10.778;2023-07-20T06:03:18;6.53;;;2.93;;
80842;SDS011;70255;53.686;10.778;2023-07-20T06:05:43;4.40;;;1.80;;
80842;SDS011;70255;53.686;10.778;2023-07-20T06:08:09;3.83;;;2.20;;
80842;SDS011;70255;53.686;10.778;2023-07-20T06:10:34;3.60;;;2.07;;
80842;SDS011;70255;53.686;10.778;2023-07-20T06:12:59;3.97;;;1.80;;
80842;SDS011;70255;53.686;10.778;2023-07-20T06:15:26;5.72;;;1.90;;
80842;SDS011;70255;53.686;10.778;2023-07-20T06:17:51;3.40;;;1.85;;
80842;SDS011;70255;53.686;10.778;2023-07-20T06:20:16;3.23;;;1.97;;
80842;SDS011;70255;53.686;10.778;2023-07-20T06:22:41;3.23;;;1.73;;
80842;SDS011;70255;53.686;10.778;2023-07-20T06:25:07;3.33;;;1.40;;
80842;SDS011;70255;53.686;10.778;2023-07-20T06:27:32;4.78;;;1.90;;
80842;SDS011;70255;53.686;10.778;2023-07-20T06:29:58;4.28;;;2.00;;
80842;SDS011;70255;53.686;10.778;2023-07-20T06:32:23;5.83;;;2.00;;
80842;SDS011;70255;53.686;10.778;2023-07-20T06:34:48;3.17;;;1.60;;
80842;SDS011;70255;53.686;10.778;2023-07-20T06:37:13;3.47;;;1.60;;
80842;SDS011;70255;53.686;10.778;2023-07-20T06:39:39;2.33;;;1.47;;
80842;SDS011;70255;53.686;10.778;2023-07-20T06:42:04;2.00;;;1.20;;
80842;SDS011;70255;53.686;10.778;2023-07-20T06:44:30;3.40;;;1.67;;
80842;SDS011;70255;53.686;10.778;2023-07-20T06:46:55;3.07;;;1.13;;
80842;SDS011;70255;53.686;10.778;2023-07-20T06:49:24;2.80;;;1.00;;
80842;SDS011;70255;53.686;10.778;2023-07-20T06:51:49;3.58;;;1.50;;
80842;SDS011;70255;53.686;10.778;2023-07-20T06:54:14;2.00;;;0.90;;
80842;SDS011;70255;53.686;10.778;2023-07-20T06:56:39;3.67;;;1.27;;
80842;SDS011;70255;53.686;10.778;2023-07-20T06:59:04;2.67;;;1.10;;
80842;SDS011;70255;53.686;10.778;2023-07-20T07:01:30;2.30;;;1.03;;
80842;SDS011;70255;53.686;10.778;2023-07-20T07:03:55;1.80;;;1.10;;
80842;SDS011;70255;53.686;10.778;2023-07-20T07:06:20;3.67;;;1.33;;
80842;SDS011;70255;53.686;10.778;2023-07-20T07:08:47;2.92;;;1.10;;
80842;SDS011;70255;53.686;10.778;2023-07-20T07:11:12;4.43;;;1.40;;
80842;SDS011;70255;53.686;10.778;2023-07-20T07:13:38;3.30;;;1.30;;
80842;SDS011;70255;53.686;10.778;2023-07-20T07:16:03;3.67;;;1.33;;
80842;SDS011;70255;53.686;10.778;2023-07-20T07:18:29;4.28;;;1.23;;
80842;SDS011;70255;53.686;10.778;2023-07-20T07:20:54;2.83;;;1.10;;
80842;SDS011;70255;53.686;10.778;2023-07-20T07:23:19;2.35;;;1.38;;
80842;SDS011;70255;53.686;10.778;2023-07-20T07:25:45;3.03;;;1.40;;
80842;SDS011;70255;53.686;10.778;2023-07-20T07:28:10;3.03;;;1.50;;
80842;SDS011;70255;53.686;10.778;2023-07-20T07:30:35;2.03;;;1.27;;
80842;SDS011;70255;53.686;10.778;2023-07-20T07:33:00;3.23;;;1.27;;
80842;SDS011;70255;53.686;10.778;2023-07-20T07:35:26;3.57;;;1.00;;
80842;SDS011;70255;53.686;10.778;2023-07-20T07:37:51;2.47;;;1.20;;
80842;SDS011;70255;53.686;10.778;2023-07-20T07:40:16;3.07;;;1.20;;
80842;SDS011;70255;53.686;10.778;2023-07-20T07:42:41;3.83;;;1.10;;
80842;SDS011;70255;53.686;10.778;2023-07-20T07:45:07;2.27;;;1.07;;
80842;SDS011;70255;53.686;10.778;2023-07-20T07:47:32;3.05;;;1.10;;
80842;SDS011;70255;53.686;10.778;2023-07-20T07:49:58;1.90;;;0.82;;
80842;SDS011;70255;53.686;10.778;2023-07-20T07:52:23;2.45;;;0.95;;
80842;SDS011;70255;53.686;10.778;2023-07-20T07:54:48;2.23;;;0.93;;
80842;SDS011;70255;53.686;10.778;2023-07-20T07:57:13;3.40;;;0.90;;
80842;SDS011;70255;53.686;10.778;2023-07-20T07:59:39;2.30;;;0.90;;
80842;SDS011;70255;53.686;10.778;2023-07-20T08:02:04;1.65;;;0.63;;
80842;SDS011;70255;53.686;10.778;2023-07-20T08:04:30;2.60;;;1.00;;
80842;SDS011;70255;53.686;10.778;2023-07-20T08:06:56;2.93;;;0.80;;
80842;SDS011;70255;53.686;10.778;2023-07-20T08:09:21;2.53;;;0.82;;
80842;SDS011;70255;53.686;10.778;2023-07-20T08:11:46;2.33;;;0.70;;
80842;SDS011;70255;53.686;10.778;2023-07-20T08:14:13;2.03;;;0.95;;
80842;SDS011;70255;53.686;10.778;2023-07-20T08:16:38;3.00;;;0.70;;
80842;SDS011;70255;53.686;10.778;2023-07-20T08:19:03;3.03;;;0.80;;
80842;SDS011;70255;53.686;10.778;2023-07-20T08:21:29;5.20;;;1.13;;
80842;SDS011;70255;53.686;10.778;2023-07-20T08:23:54;1.97;;;0.80;;
80842;SDS011;70255;53.686;10.778;2023-07-20T08:26:19;2.80;;;0.90;;
80842;SDS011;70255;53.686;10.778;2023-07-20T08:28:47;2.10;;;0.70;;
80842;SDS011;70255;53.686;10.778;2023-07-20T08:31:13;2.80;;;1.00;;
80842;SDS011;70255;53.686;10.778;2023-07-20T08:33:38;3.05;;;0.70;;
80842;SDS011;70255;53.686;10.778;2023-07-20T08:36:03;2.63;;;0.70;;
80842;SDS011;70255;53.686;10.778;2023-07-20T08:38:30;2.50;;;0.80;;
80842;SDS011;70255;53.686;10.778;2023-07-20T08:40:56;2.30;;;0.70;;
80842;SDS011;70255;53.686;10.778;2023-07-20T08:43:22;3.33;;;0.80;;
80842;SDS011;70255;53.686;10.778;2023-07-20T08:45:48;2.45;;;0.60;;
80842;SDS011;70255;53.686;10.778;2023-07-20T08:48:15;3.60;;;0.65;;
80842;SDS011;70255;53.686;10.778;2023-07-20T08:50:40;2.05;;;0.73;;
80842;SDS011;70255;53.686;10.778;2023-07-20T08:53:06;2.08;;;0.60;;
80842;SDS011;70255;53.686;10.778;2023-07-20T08:55:31;3.58;;;0.70;;
80842;SDS011;70255;53.686;10.778;2023-07-20T08:58:00;1.10;;;0.55;;
80842;SDS011;70255;53.686;10.778;2023-07-20T09:00:26;1.58;;;0.65;;
80842;SDS011;70255;53.686;10.778;2023-07-20T09:02:54;2.75;;;0.85;;
80842;SDS011;70255;53.686;10.778;2023-07-20T09:07:45;2.20;;;0.70;;
80842;SDS011;70255;53.686;10.778;2023-07-20T09:10:10;3.00;;;0.73;;
80842;SDS011;70255;53.686;10.778;2023-07-20T09:12:39;5.20;;;0.73;;
80842;SDS011;70255;53.686;10.778;2023-07-20T09:15:05;2.92;;;0.77;;
80842;SDS011;70255;53.686;10.778;2023-07-20T09:17:30;2.53;;;0.70;;
80842;SDS011;70255;53.686;10.778;2023-07-20T09:19:56;3.50;;;0.63;;
80842;SDS011;70255;53.686;10.778;2023-07-20T09:22:21;2.67;;;0.73;;
80842;SDS011;70255;53.686;10.778;2023-07-20T09:24:46;5.20;;;0.77;;
80842;SDS011;70255;53.686;10.778;2023-07-20T09:27:11;3.37;;;0.80;;
80842;SDS011;70255;53.686;10.778;2023-07-20T09:29:50;3.33;;;0.80;;
80842;SDS011;70255;53.686;10.778;2023-07-20T09:32:19;3.55;;;0.85;;
80842;SDS011;70255;53.686;10.778;2023-07-20T09:34:45;3.83;;;0.90;;
80842;SDS011;70255;53.686;10.778;2023-07-20T09:37:11;3.88;;;1.10;;
80842;SDS011;70255;53.686;10.778;2023-07-20T09:39:45;3.90;;;0.83;;
80842;SDS011;70255;53.686;10.778;2023-07-20T09:42:11;3.55;;;0.82;;
80842;SDS011;70255;53.686;10.778;2023-07-20T09:44:37;2.25;;;0.90;;
80842;SDS011;70255;53.686;10.778;2023-07-20T09:47:03;4.70;;;0.98;;
80842;SDS011;70255;53.686;10.778;2023-07-20T09:49:29;2.88;;;0.80;;
80842;SDS011;70255;53.686;10.778;2023-07-20T09:51:54;3.13;;;1.02;;
80842;SDS011;70255;53.686;10.778;2023-07-20T09:54:20;3.80;;;1.00;;
80842;SDS011;70255;53.686;10.778;2023-07-20T09:56:46;2.92;;;0.82;;
80842;SDS011;70255;53.686;10.778;2023-07-20T09:59:13;2.20;;;0.52;;
80842;SDS011;70255;53.686;10.778;2023-07-20T10:01:39;4.88;;;0.70;;
80842;SDS011;70255;53.686;10.778;2023-07-20T10:04:07;3.00;;;0.70;;
80842;SDS011;70255;53.686;10.778;2023-07-20T10:06:33;3.42;;;0.90;;
80842;SDS011;70255;53.686;10.778;2023-07-20T10:09:02;3.08;;;0.93;;
80842;SDS011;70255;53.686;10.778;2023-07-20T10:11:31;2.53;;;0.80;;
80842;SDS011;70255;53.686;10.778;2023-07-20T10:13:57;2.80;;;0.90;;
80842;SDS011;70255;53.686;10.778;2023-07-20T10:16:28;1.60;;;0.60;;
80842;SDS011;70255;53.686;10.778;2023-07-20T10:19:05;4.05;;;0.73;;
80842;SDS011;70255;53.686;10.778;2023-07-20T10:21:31;2.50;;;0.80;;
80842;SDS011;70255;53.686;10.778;2023-07-20T10:23:58;3.97;;;0.95;;
80842;SDS011;70255;53.686;10.778;2023-07-20T10:26:24;3.45;;;0.88;;
80842;SDS011;70255;53.686;10.778;2023-07-20T10:28:49;4.97;;;0.90;;
80842;SDS011;70255;53.686;10.778;2023-07-20T10:31:15;5.10;;;0.90;;
80842;SDS011;70255;53.686;10.778;2023-07-20T10:33:40;4.75;;;0.85;;
80842;SDS011;70255;53.686;10.778;2023-07-20T10:36:06;3.88;;;0.85;;
80842;SDS011;70255;53.686;10.778;2023-07-20T10:38:38;3.22;;;0.70;;
80842;SDS011;70255;53.686;10.778;2023-07-20T10:41:03;3.50;;;0.70;;
80842;SDS011;70255;53.686;10.778;2023-07-20T10:43:28;2.73;;;0.60;;
80842;SDS011;70255;53.686;10.778;2023-07-20T10:45:55;3.13;;;0.73;;
80842;SDS011;70255;53.686;10.778;2023-07-20T10:48:21;3.42;;;0.63;;
80842;SDS011;70255;53.686;10.778;2023-07-20T10:53:31;2.13;;;0.68;;
80842;SDS011;70255;53.686;10.778;2023-07-20T10:56:05;2.23;;;0.50;;
80842;SDS011;70255;53.686;10.778;2023-07-20T10:58:31;2.17;;;0.43;;
80842;SDS011;70255;53.686;10.778;2023-07-20T11:00:57;2.60;;;0.63;;
80842;SDS011;70255;53.686;10.778;2023-07-20T11:03:29;3.67;;;0.70;;
80842;SDS011;70255;53.686;10.778;2023-07-20T11:05:56;4.63;;;0.70;;
80842;SDS011;70255;53.686;10.778;2023-07-20T11:08:37;1.38;;;0.32;;
80842;SDS011;70255;53.686;10.778;2023-07-20T11:14:02;3.05;;;0.28;;
80842;SDS011;70255;53.686;10.778;2023-07-20T11:16:41;3.95;;;0.52;;
80842;SDS011;70255;53.686;10.778;2023-07-20T11:19:17;1.88;;;0.60;;
80842;SDS011;70255;53.686;10.778;2023-07-20T11:21:43;2.35;;;0.30;;
80842;SDS011;70255;53.686;10.778;2023-07-20T11:24:08;1.38;;;0.20;;
80842;SDS011;70255;53.686;10.778;2023-07-20T11:26:45;3.60;;;0.65;;
80842;SDS011;70255;53.686;10.778;2023-07-20T11:29:10;1.60;;;0.30;;
80842;SDS011;70255;53.686;10.778;2023-07-20T11:31:39;5.70;;;0.60;;
80842;SDS011;70255;53.686;10.778;2023-07-20T11:34:05;2.95;;;0.30;;
80842;SDS011;70255;53.686;10.778;2023-07-20T11:36:30;3.17;;;0.30;;
80842;SDS011;70255;53.686;10.778;2023-07-20T11:38:55;2.57;;;0.27;;
80842;SDS011;70255;53.686;10.778;2023-07-20T11:41:20;1.43;;;0.20;;
80842;SDS011;70255;53.686;10.778;2023-07-20T11:43:46;2.17;;;0.22;;
80842;SDS011;70255;53.686;10.778;2023-07-20T11:46:12;1.35;;;0.17;;
80842;SDS011;70255;53.686;10.778;2023-07-20T11:48:37;0.57;;;0.20;;
80842;SDS011;70255;53.686;10.778;2023-07-20T11:51:02;1.00;;;0.20;;
80842;SDS011;70255;53.686;10.778;2023-07-20T11:53:27;1.80;;;0.70;;
80842;SDS011;70255;53.686;10.778;2023-07-20T11:55:53;2.13;;;0.98;;
80842;SDS011;70255;53.686;10.778;2023-07-20T11:58:18;3.53;;;1.25;;
80842;SDS011;70255;53.686;10.778;2023-07-20T12:00:44;1.75;;;1.10;;
80842;SDS011;70255;53.686;10.778;2023-07-20T12:03:10;3.22;;;1.40;;
80842;SDS011;70255;53.686;10.778;2023-07-20T12:05:37;3.75;;;1.45;;
80842;SDS011;70255;53.686;10.778;2023-07-20T12:08:02;3.35;;;1.77;;
80842;SDS011;70255;53.686;10.778;2023-07-20T12:10:28;2.42;;;1.23;;
80842;SDS011;70255;53.686;10.778;2023-07-20T12:12:53;2.10;;;1.25;;
80842;SDS011;70255;53.686;10.778;2023-07-20T12:15:22;3.67;;;1.20;;
80842;SDS011;70255;53.686;10.778;2023-07-20T12:17:51;3.65;;;1.00;;
80842;SDS011;70255;53.686;10.778;2023-07-20T12:20:26;2.35;;;0.90;;
80842;SDS011;70255;53.686;10.778;2023-07-20T12:22:52;3.42;;;0.80;;
80842;SDS011;70255;53.686;10.778;2023-07-20T12:25:17;1.80;;;0.80;;
80842;SDS011;70255;53.686;10.778;2023-07-20T12:27:45;2.85;;;0.88;;
80842;SDS011;70255;53.686;10.778;2023-07-20T12:30:10;2.42;;;0.68;;
80842;SDS011;70255;53.686;10.778;2023-07-20T12:32:35;1.23;;;0.50;;
80842;SDS011;70255;53.686;10.778;2023-07-20T12:35:02;3.75;;;0.65;;
80842;SDS011;70255;53.686;10.778;2023-07-20T12:37:27;2.07;;;0.53;;
80842;SDS011;70255;53.686;10.778;2023-07-20T12:39:53;3.25;;;0.73;;
80842;SDS011;70255;53.686;10.778;2023-07-20T12:42:18;2.33;;;0.77;;
80842;SDS011;70255;53.686;10.778;2023-07-20T12:44:43;2.58;;;1.05;;
80842;SDS011;70255;53.686;10.778;2023-07-20T12:47:08;4.00;;;1.00;;
80842;SDS011;70255;53.686;10.778;2023-07-20T12:49:34;0.60;;;0.40;;
80842;SDS011;70255;53.686;10.778;2023-07-20T12:51:59;2.00;;;0.60;;
80842;SDS011;70255;53.686;10.778;2023-07-20T12:54:25;2.72;;;0.55;;
80842;SDS011;70255;53.686;10.778;2023-07-20T12:56:50;2.50;;;0.60;;
80842;SDS011;70255;53.686;10.778;2023-07-20T12:59:15;2.50;;;0.40;;
80842;SDS011;70255;53.686;10.778;2023-07-20T13:01:40;1.80;;;0.50;;
80842;SDS011;70255;53.686;10.778;2023-07-20T13:04:06;2.42;;;0.50;;
80842;SDS011;70255;53.686;10.778;2023-07-20T13:06:34;2.85;;;0.60;;
80842;SDS011;70255;53.686;10.778;2023-07-20T13:08:59;2.20;;;0.40;;
80842;SDS011;70255;53.686;10.778;2023-07-20T13:11:24;3.30;;;0.40;;
80842;SDS011;70255;53.686;10.778;2023-07-20T13:13:50;2.27;;;0.50;;
80842;SDS011;70255;53.686;10.778;2023-07-20T13:16:15;1.50;;;0.33;;
80842;SDS011;70255;53.686;10.778;2023-07-20T13:18:40;1.95;;;0.30;;
80842;SDS011;70255;53.686;10.778;2023-07-20T13:21:05;3.53;;;0.30;;
80842;SDS011;70255;53.686;10.778;2023-07-20T13:23:35;2.30;;;0.40;;
80842;SDS011;70255;53.686;10.778;2023-07-20T13:26:00;1.67;;;0.40;;
80842;SDS011;70255;53.686;10.778;2023-07-20T13:28:25;3.20;;;0.50;;
80842;SDS011;70255;53.686;10.778;2023-07-20T13:30:50;2.13;;;0.37;;
80842;SDS011;70255;53.686;10.778;2023-07-20T13:33:16;3.97;;;0.57;;
80842;SDS011;70255;53.686;10.778;2023-07-20T13:35:41;1.30;;;0.40;;
80842;SDS011;70255;53.686;10.778;2023-07-20T13:38:06;1.43;;;0.37;;
80842;SDS011;70255;53.686;10.778;2023-07-20T13:40:32;6.17;;;0.50;;
80842;SDS011;70255;53.686;10.778;2023-07-20T13:42:57;4.60;;;0.60;;
80842;SDS011;70255;53.686;10.778;2023-07-20T13:45:23;3.10;;;0.40;;
80842;SDS011;70255;53.686;10.778;2023-07-20T13:47:48;2.55;;;0.90;;
80842;SDS011;70255;53.686;10.778;2023-07-20T13:50:13;4.10;;;1.47;;
80842;SDS011;70255;53.686;10.778;2023-07-20T13:52:39;2.50;;;0.50;;
80842;SDS011;70255;53.686;10.778;2023-07-20T13:55:04;1.60;;;0.60;;
80842;SDS011;70255;53.686;10.778;2023-07-20T13:57:29;4.43;;;0.60;;
80842;SDS011;70255;53.686;10.778;2023-07-20T13:59:55;4.60;;;0.52;;
80842;SDS011;70255;53.686;10.778;2023-07-20T14:02:20;2.70;;;0.57;;
80842;SDS011;70255;53.686;10.778;2023-07-20T14:04:45;1.93;;;0.63;;
80842;SDS011;70255;53.686;10.778;2023-07-20T14:07:11;2.50;;;0.65;;
80842;SDS011;70255;53.686;10.778;2023-07-20T14:09:36;5.95;;;1.05;;
80842;SDS011;70255;53.686;10.778;2023-07-20T14:12:01;3.33;;;0.70;;
80842;SDS011;70255;53.686;10.778;2023-07-20T14:14:26;6.00;;;0.70;;
80842;SDS011;70255;53.686;10.778;2023-07-20T14:16:52;6.73;;;0.67;;
80842;SDS011;70255;53.686;10.778;2023-07-20T14:19:17;2.93;;;0.90;;
80842;SDS011;70255;53.686;10.778;2023-07-20T14:21:42;3.37;;;0.60;;
80842;SDS011;70255;53.686;10.778;2023-07-20T14:24:07;3.90;;;0.70;;
80842;SDS011;70255;53.686;10.778;2023-07-20T14:26:33;2.77;;;0.60;;
80842;SDS011;70255;53.686;10.778;2023-07-20T14:28:58;3.88;;;0.45;;
80842;SDS011;70255;53.686;10.778;2023-07-20T14:31:23;1.80;;;0.30;;
80842;SDS011;70255;53.686;10.778;2023-07-20T14:33:49;3.60;;;0.60;;
80842;SDS011;70255;53.686;10.778;2023-07-20T14:36:14;2.58;;;0.30;;
80842;SDS011;70255;53.686;10.778;2023-07-20T14:38:39;3.20;;;0.50;;